sensor_id;sensor_type;location;lat;lon;timestamp;temperature;humidity
43697;DHT22;29301;47.620;19.560;2022-08-11T00:01:52;20.60;60.80
43697;DHT22;29301;47.620;19.560;2022-08-11T00:04:21;20.60;61.00
43697;DHT22;29301;47.620;19.560;2022-08-11T00:06:48;20.60;60.60
43697;DHT22;29301;47.620;19.560;2022-08-11T00:09:20;20.70;60.70
43697;DHT22;29301;47.620;19.560;2022-08-11T00:11:50;20.60;60.70
43697;DHT22;29301;47.620;19.560;2022-08-11T00:14:22;20.60;60.80
43697;DHT22;29301;47.620;19.560;2022-08-11T00:16:57;20.50;60.80
43697;DHT22;29301;47.620;19.560;2022-08-11T00:19:26;20.50;60.90
43697;DHT22;29301;47.620;19.560;2022-08-11T00:21:53;20.50;61.10
43697;DHT22;29301;47.620;19.560;2022-08-11T00:24:20;20.50;61.10
43697;DHT22;29301;47.620;19.560;2022-08-11T00:26:51;20.50;61.30
43697;DHT22;29301;47.620;19.560;2022-08-11T00:29:19;20.40;61.40
43697;DHT22;29301;47.620;19.560;2022-08-11T00:31:50;20.40;61.60
43697;DHT22;29301;47.620;19.560;2022-08-11T00:34:20;20.40;61.70
43697;DHT22;29301;47.620;19.560;2022-08-11T00:37:05;20.50;61.40
43697;DHT22;29301;47.620;19.560;2022-08-11T00:39:35;20.50;61.40
43697;DHT22;29301;47.620;19.560;2022-08-11T00:42:42;20.50;61.50
43697;DHT22;29301;47.620;19.560;2022-08-11T00:45:26;20.50;61.60
43697;DHT22;29301;47.620;19.560;2022-08-11T00:48:04;20.50;61.70
43697;DHT22;29301;47.620;19.560;2022-08-11T01:25:52;20.20;63.30
43697;DHT22;29301;47.620;19.560;2022-08-11T01:37:05;20.00;63.90
43697;DHT22;29301;47.620;19.560;2022-08-11T01:54:25;19.70;65.30
43697;DHT22;29301;47.620;19.560;2022-08-11T01:59:45;19.50;66.10
43697;DHT22;29301;47.620;19.560;2022-08-11T02:02:44;19.50;66.10
43697;DHT22;29301;47.620;19.560;2022-08-11T02:08:19;19.50;66.40
43697;DHT22;29301;47.620;19.560;2022-08-11T02:17:12;19.40;66.50
43697;DHT22;29301;47.620;19.560;2022-08-11T02:25:53;19.40;66.50
43697;DHT22;29301;47.620;19.560;2022-08-11T02:28:28;19.40;66.60
43697;DHT22;29301;47.620;19.560;2022-08-11T02:33:47;19.40;66.50
43697;DHT22;29301;47.620;19.560;2022-08-11T02:36:23;19.40;66.60
43697;DHT22;29301;47.620;19.560;2022-08-11T02:39:01;19.20;66.90
43697;DHT22;29301;47.620;19.560;2022-08-11T02:41:39;19.20;67.20
43697;DHT22;29301;47.620;19.560;2022-08-11T02:54:01;19.00;68.90
43697;DHT22;29301;47.620;19.560;2022-08-11T02:56:37;19.00;69.40
43697;DHT22;29301;47.620;19.560;2022-08-11T02:59:40;19.00;69.30
43697;DHT22;29301;47.620;19.560;2022-08-11T03:08:07;18.60;71.00
43697;DHT22;29301;47.620;19.560;2022-08-11T03:13:58;18.60;71.70
43697;DHT22;29301;47.620;19.560;2022-08-11T03:16:53;18.60;71.80
43697;DHT22;29301;47.620;19.560;2022-08-11T03:19:36;18.60;71.40
43697;DHT22;29301;47.620;19.560;2022-08-11T03:25:07;18.70;71.90
43697;DHT22;29301;47.620;19.560;2022-08-11T03:30:49;18.50;73.00
43697;DHT22;29301;47.620;19.560;2022-08-11T03:33:21;18.50;73.10
43697;DHT22;29301;47.620;19.560;2022-08-11T03:42:12;18.20;74.20
43697;DHT22;29301;47.620;19.560;2022-08-11T03:50:47;18.20;75.50
43697;DHT22;29301;47.620;19.560;2022-08-11T03:56:41;18.30;75.60
43697;DHT22;29301;47.620;19.560;2022-08-11T04:02:35;18.00;76.80
43697;DHT22;29301;47.620;19.560;2022-08-11T04:36:46;18.90;74.10
43697;DHT22;29301;47.620;19.560;2022-08-11T04:40:05;18.90;74.00
43697;DHT22;29301;47.620;19.560;2022-08-11T04:46:18;19.00;73.70
43697;DHT22;29301;47.620;19.560;2022-08-11T04:52:22;19.10;73.60
43697;DHT22;29301;47.620;19.560;2022-08-11T05:12:56;19.40;75.30
43697;DHT22;29301;47.620;19.560;2022-08-11T05:15:50;19.40;75.00
43697;DHT22;29301;47.620;19.560;2022-08-11T05:18:50;19.50;74.40
43697;DHT22;29301;47.620;19.560;2022-08-11T05:21:35;19.60;74.00
43697;DHT22;29301;47.620;19.560;2022-08-11T05:24:25;19.70;74.30
43697;DHT22;29301;47.620;19.560;2022-08-11T05:27:14;19.70;74.40
43697;DHT22;29301;47.620;19.560;2022-08-11T05:30:09;19.80;74.10
43697;DHT22;29301;47.620;19.560;2022-08-11T05:33:04;20.00;74.20
43697;DHT22;29301;47.620;19.560;2022-08-11T05:35:59;20.00;74.10
43697;DHT22;29301;47.620;19.560;2022-08-11T05:38:28;20.20;74.20
43697;DHT22;29301;47.620;19.560;2022-08-11T05:41:14;20.20;72.50
43697;DHT22;29301;47.620;19.560;2022-08-11T05:44:03;20.30;71.90
43697;DHT22;29301;47.620;19.560;2022-08-11T05:46:48;20.40;71.80
43697;DHT22;29301;47.620;19.560;2022-08-11T05:49:33;20.50;71.60
43697;DHT22;29301;47.620;19.560;2022-08-11T05:52:26;20.60;71.30
43697;DHT22;29301;47.620;19.560;2022-08-11T05:55:11;20.80;70.70
43697;DHT22;29301;47.620;19.560;2022-08-11T05:58:00;20.80;69.60
43697;DHT22;29301;47.620;19.560;2022-08-11T06:00:26;21.00;69.10
43697;DHT22;29301;47.620;19.560;2022-08-11T06:02:58;21.00;68.10
43697;DHT22;29301;47.620;19.560;2022-08-11T06:05:36;21.10;67.70
43697;DHT22;29301;47.620;19.560;2022-08-11T06:08:04;21.20;67.10
43697;DHT22;29301;47.620;19.560;2022-08-11T06:10:32;21.30;66.70
43697;DHT22;29301;47.620;19.560;2022-08-11T06:12:59;21.30;65.90
43697;DHT22;29301;47.620;19.560;2022-08-11T06:15:33;21.50;65.30
43697;DHT22;29301;47.620;19.560;2022-08-11T06:18:03;21.60;64.80
43697;DHT22;29301;47.620;19.560;2022-08-11T06:20:29;21.70;64.00
43697;DHT22;29301;47.620;19.560;2022-08-11T06:23:03;21.80;63.60
43697;DHT22;29301;47.620;19.560;2022-08-11T06:25:32;21.90;63.90
43697;DHT22;29301;47.620;19.560;2022-08-11T06:28:02;22.10;63.40
43697;DHT22;29301;47.620;19.560;2022-08-11T06:30:37;22.40;62.50
43697;DHT22;29301;47.620;19.560;2022-08-11T06:33:13;22.60;60.30
43697;DHT22;29301;47.620;19.560;2022-08-11T06:39:01;23.10;58.40
43697;DHT22;29301;47.620;19.560;2022-08-11T06:41:26;23.20;58.20
43697;DHT22;29301;47.620;19.560;2022-08-11T06:46:40;23.60;56.50
43697;DHT22;29301;47.620;19.560;2022-08-11T06:49:12;23.70;56.20
43697;DHT22;29301;47.620;19.560;2022-08-11T06:52:03;23.90;54.90
43697;DHT22;29301;47.620;19.560;2022-08-11T06:54:49;24.00;54.20
43697;DHT22;29301;47.620;19.560;2022-08-11T06:57:17;24.10;53.80
43697;DHT22;29301;47.620;19.560;2022-08-11T07:00:03;24.20;53.90
43697;DHT22;29301;47.620;19.560;2022-08-11T07:05:44;24.80;52.80
43697;DHT22;29301;47.620;19.560;2022-08-11T07:14:50;25.30;48.80
43697;DHT22;29301;47.620;19.560;2022-08-11T07:17:43;25.60;48.10
43697;DHT22;29301;47.620;19.560;2022-08-11T07:20:14;25.80;47.90
43697;DHT22;29301;47.620;19.560;2022-08-11T07:23:01;25.90;47.60
43697;DHT22;29301;47.620;19.560;2022-08-11T07:25:51;25.90;47.30
43697;DHT22;29301;47.620;19.560;2022-08-11T07:28:41;26.00;47.40
43697;DHT22;29301;47.620;19.560;2022-08-11T07:31:28;26.30;47.20
43697;DHT22;29301;47.620;19.560;2022-08-11T07:34:21;26.40;46.00
43697;DHT22;29301;47.620;19.560;2022-08-11T07:36:57;26.50;45.40
43697;DHT22;29301;47.620;19.560;2022-08-11T07:39:30;26.50;45.10
43697;DHT22;29301;47.620;19.560;2022-08-11T07:41:57;26.60;45.50
43697;DHT22;29301;47.620;19.560;2022-08-11T07:44:26;26.80;45.10
43697;DHT22;29301;47.620;19.560;2022-08-11T07:46:55;26.90;44.60
43697;DHT22;29301;47.620;19.560;2022-08-11T07:49:44;27.00;44.70
43697;DHT22;29301;47.620;19.560;2022-08-11T07:52:30;27.00;44.60
43697;DHT22;29301;47.620;19.560;2022-08-11T07:57:30;27.40;44.30
43697;DHT22;29301;47.620;19.560;2022-08-11T08:00:16;27.50;43.80
43697;DHT22;29301;47.620;19.560;2022-08-11T08:03:03;27.50;43.80
43697;DHT22;29301;47.620;19.560;2022-08-11T08:05:49;27.80;44.10
43697;DHT22;29301;47.620;19.560;2022-08-11T08:08:36;27.90;43.50
43697;DHT22;29301;47.620;19.560;2022-08-11T08:11:24;28.10;43.50
43697;DHT22;29301;47.620;19.560;2022-08-11T08:14:09;28.10;43.00
43697;DHT22;29301;47.620;19.560;2022-08-11T08:16:55;28.10;42.80
43697;DHT22;29301;47.620;19.560;2022-08-11T08:19:42;28.20;42.60
43697;DHT22;29301;47.620;19.560;2022-08-11T08:22:16;28.20;42.90
43697;DHT22;29301;47.620;19.560;2022-08-11T08:24:43;28.50;42.50
43697;DHT22;29301;47.620;19.560;2022-08-11T08:27:09;28.50;42.30
43697;DHT22;29301;47.620;19.560;2022-08-11T08:29:38;28.60;41.80
43697;DHT22;29301;47.620;19.560;2022-08-11T08:32:23;28.50;41.60
43697;DHT22;29301;47.620;19.560;2022-08-11T08:34:51;28.50;41.90
43697;DHT22;29301;47.620;19.560;2022-08-11T08:37:19;28.60;41.70
43697;DHT22;29301;47.620;19.560;2022-08-11T08:39:46;28.50;41.60
43697;DHT22;29301;47.620;19.560;2022-08-11T08:42:16;28.60;41.50
43697;DHT22;29301;47.620;19.560;2022-08-11T08:44:46;28.80;41.30
43697;DHT22;29301;47.620;19.560;2022-08-11T08:47:17;29.10;41.00
43697;DHT22;29301;47.620;19.560;2022-08-11T08:50:00;29.20;41.10
43697;DHT22;29301;47.620;19.560;2022-08-11T08:52:31;29.30;40.70
43697;DHT22;29301;47.620;19.560;2022-08-11T08:55:02;29.10;40.80
43697;DHT22;29301;47.620;19.560;2022-08-11T08:57:35;29.20;41.00
43697;DHT22;29301;47.620;19.560;2022-08-11T09:00:04;29.30;40.80
43697;DHT22;29301;47.620;19.560;2022-08-11T09:02:30;29.40;40.90
43697;DHT22;29301;47.620;19.560;2022-08-11T09:04:56;29.30;40.40
43697;DHT22;29301;47.620;19.560;2022-08-11T09:07:23;29.20;40.40
43697;DHT22;29301;47.620;19.560;2022-08-11T09:09:55;29.40;40.50
43697;DHT22;29301;47.620;19.560;2022-08-11T09:12:28;29.40;40.60
43697;DHT22;29301;47.620;19.560;2022-08-11T09:14:56;29.70;40.30
43697;DHT22;29301;47.620;19.560;2022-08-11T09:17:26;29.80;40.10
43697;DHT22;29301;47.620;19.560;2022-08-11T09:19:55;29.70;40.00
43697;DHT22;29301;47.620;19.560;2022-08-11T09:22:29;29.90;40.10
43697;DHT22;29301;47.620;19.560;2022-08-11T09:25:15;30.00;40.10
43697;DHT22;29301;47.620;19.560;2022-08-11T09:28:00;29.90;39.60
43697;DHT22;29301;47.620;19.560;2022-08-11T09:30:27;30.00;39.50
43697;DHT22;29301;47.620;19.560;2022-08-11T09:32:56;29.90;39.30
43697;DHT22;29301;47.620;19.560;2022-08-11T09:35:30;29.90;39.20
43697;DHT22;29301;47.620;19.560;2022-08-11T09:37:57;29.70;39.40
43697;DHT22;29301;47.620;19.560;2022-08-11T09:40:50;29.80;39.90
43697;DHT22;29301;47.620;19.560;2022-08-11T09:43:17;29.90;40.10
43697;DHT22;29301;47.620;19.560;2022-08-11T09:46:03;29.80;39.90
43697;DHT22;29301;47.620;19.560;2022-08-11T09:48:43;29.40;39.60
43697;DHT22;29301;47.620;19.560;2022-08-11T09:51:10;29.20;40.00
43697;DHT22;29301;47.620;19.560;2022-08-11T09:53:39;29.30;40.40
43697;DHT22;29301;47.620;19.560;2022-08-11T09:56:16;29.30;40.40
43697;DHT22;29301;47.620;19.560;2022-08-11T09:59:02;29.30;40.60
43697;DHT22;29301;47.620;19.560;2022-08-11T10:01:44;29.30;40.60
43697;DHT22;29301;47.620;19.560;2022-08-11T10:04:22;29.50;40.80
43697;DHT22;29301;47.620;19.560;2022-08-11T10:06:52;29.80;40.40
43697;DHT22;29301;47.620;19.560;2022-08-11T10:09:37;29.90;40.30
43697;DHT22;29301;47.620;19.560;2022-08-11T10:12:22;30.00;40.50
43697;DHT22;29301;47.620;19.560;2022-08-11T10:14:53;30.20;40.30
43697;DHT22;29301;47.620;19.560;2022-08-11T10:17:41;30.00;39.90
43697;DHT22;29301;47.620;19.560;2022-08-11T10:20:32;29.40;39.80
43697;DHT22;29301;47.620;19.560;2022-08-11T10:22:58;29.10;40.00
43697;DHT22;29301;47.620;19.560;2022-08-11T10:25:44;28.90;40.40
43697;DHT22;29301;47.620;19.560;2022-08-11T10:28:28;28.50;40.20
43697;DHT22;29301;47.620;19.560;2022-08-11T10:30:55;28.40;40.60
43697;DHT22;29301;47.620;19.560;2022-08-11T10:33:41;28.70;41.30
43697;DHT22;29301;47.620;19.560;2022-08-11T10:36:42;28.60;41.20
43697;DHT22;29301;47.620;19.560;2022-08-11T10:39:19;28.50;41.40
43697;DHT22;29301;47.620;19.560;2022-08-11T10:41:46;28.50;41.70
43697;DHT22;29301;47.620;19.560;2022-08-11T10:44:38;28.40;41.40
43697;DHT22;29301;47.620;19.560;2022-08-11T10:47:06;28.20;41.60
43697;DHT22;29301;47.620;19.560;2022-08-11T10:49:52;28.10;41.70
43697;DHT22;29301;47.620;19.560;2022-08-11T10:52:39;28.10;42.00
43697;DHT22;29301;47.620;19.560;2022-08-11T10:55:24;28.20;42.20
43697;DHT22;29301;47.620;19.560;2022-08-11T10:58:10;28.60;42.20
43697;DHT22;29301;47.620;19.560;2022-08-11T11:00:54;29.00;41.80
43697;DHT22;29301;47.620;19.560;2022-08-11T11:03:28;28.90;40.90
43697;DHT22;29301;47.620;19.560;2022-08-11T11:06:00;28.90;41.20
43697;DHT22;29301;47.620;19.560;2022-08-11T11:08:29;28.60;41.90
43697;DHT22;29301;47.620;19.560;2022-08-11T11:11:15;28.30;41.50
43697;DHT22;29301;47.620;19.560;2022-08-11T11:13:49;28.10;41.90
43697;DHT22;29301;47.620;19.560;2022-08-11T11:16:35;27.90;41.90
43697;DHT22;29301;47.620;19.560;2022-08-11T11:19:14;27.80;42.00
43697;DHT22;29301;47.620;19.560;2022-08-11T11:21:46;27.70;42.20
43697;DHT22;29301;47.620;19.560;2022-08-11T11:24:41;27.60;42.30
43697;DHT22;29301;47.620;19.560;2022-08-11T11:27:43;27.50;42.50
43697;DHT22;29301;47.620;19.560;2022-08-11T11:30:12;27.50;42.60
43697;DHT22;29301;47.620;19.560;2022-08-11T11:38:01;27.80;43.00
43697;DHT22;29301;47.620;19.560;2022-08-11T11:40:27;27.70;42.80
43697;DHT22;29301;47.620;19.560;2022-08-11T11:42:55;27.70;42.50
43697;DHT22;29301;47.620;19.560;2022-08-11T11:45:24;27.70;42.30
43697;DHT22;29301;47.620;19.560;2022-08-11T11:47:52;27.70;42.40
43697;DHT22;29301;47.620;19.560;2022-08-11T11:50:41;27.80;42.80
43697;DHT22;29301;47.620;19.560;2022-08-11T11:53:08;27.80;42.70
43697;DHT22;29301;47.620;19.560;2022-08-11T11:55:35;27.80;42.30
43697;DHT22;29301;47.620;19.560;2022-08-11T11:58:03;27.70;42.00
43697;DHT22;29301;47.620;19.560;2022-08-11T12:00:50;27.60;41.90
43697;DHT22;29301;47.620;19.560;2022-08-11T12:03:36;27.70;41.90
43697;DHT22;29301;47.620;19.560;2022-08-11T12:06:02;27.80;42.00
43697;DHT22;29301;47.620;19.560;2022-08-11T12:08:28;27.80;42.00
43697;DHT22;29301;47.620;19.560;2022-08-11T12:11:01;27.80;41.80
43697;DHT22;29301;47.620;19.560;2022-08-11T12:13:48;27.80;41.70
43697;DHT22;29301;47.620;19.560;2022-08-11T12:16:17;27.80;41.80
43697;DHT22;29301;47.620;19.560;2022-08-11T12:18:46;27.80;42.10
43697;DHT22;29301;47.620;19.560;2022-08-11T12:21:14;27.80;42.40
43697;DHT22;29301;47.620;19.560;2022-08-11T12:23:41;27.70;42.70
43697;DHT22;29301;47.620;19.560;2022-08-11T12:26:27;27.60;42.80
43697;DHT22;29301;47.620;19.560;2022-08-11T12:29:11;27.50;42.70
43697;DHT22;29301;47.620;19.560;2022-08-11T12:31:39;27.40;42.60
43697;DHT22;29301;47.620;19.560;2022-08-11T12:34:11;27.60;42.70
43697;DHT22;29301;47.620;19.560;2022-08-11T12:36:40;27.80;42.90
43697;DHT22;29301;47.620;19.560;2022-08-11T12:39:08;28.00;42.70
43697;DHT22;29301;47.620;19.560;2022-08-11T12:41:36;28.20;42.50
43697;DHT22;29301;47.620;19.560;2022-08-11T12:44:24;28.20;42.10
43697;DHT22;29301;47.620;19.560;2022-08-11T12:47:11;28.10;42.00
43697;DHT22;29301;47.620;19.560;2022-08-11T12:49:44;27.90;41.90
43697;DHT22;29301;47.620;19.560;2022-08-11T12:52:34;27.80;42.00
43697;DHT22;29301;47.620;19.560;2022-08-11T12:57:36;27.60;42.40
43697;DHT22;29301;47.620;19.560;2022-08-11T13:00:21;27.60;42.70
43697;DHT22;29301;47.620;19.560;2022-08-11T13:03:09;27.60;42.90
43697;DHT22;29301;47.620;19.560;2022-08-11T13:05:58;27.60;42.90
43697;DHT22;29301;47.620;19.560;2022-08-11T13:08:26;27.80;43.20
43697;DHT22;29301;47.620;19.560;2022-08-11T13:10:55;27.90;43.10
43697;DHT22;29301;47.620;19.560;2022-08-11T13:13:40;27.80;42.60
43697;DHT22;29301;47.620;19.560;2022-08-11T13:16:09;27.80;42.70
43697;DHT22;29301;47.620;19.560;2022-08-11T13:18:36;27.90;43.40
43697;DHT22;29301;47.620;19.560;2022-08-11T13:21:03;28.00;42.80
43697;DHT22;29301;47.620;19.560;2022-08-11T13:23:30;28.00;42.20
43697;DHT22;29301;47.620;19.560;2022-08-11T13:25:56;28.00;41.80
43697;DHT22;29301;47.620;19.560;2022-08-11T13:28:22;28.00;41.60
43697;DHT22;29301;47.620;19.560;2022-08-11T13:30:50;28.10;41.60
43697;DHT22;29301;47.620;19.560;2022-08-11T13:33:43;28.10;41.60
43697;DHT22;29301;47.620;19.560;2022-08-11T13:36:10;28.10;41.50
43697;DHT22;29301;47.620;19.560;2022-08-11T13:38:37;28.20;41.60
43697;DHT22;29301;47.620;19.560;2022-08-11T13:41:06;28.30;41.60
43697;DHT22;29301;47.620;19.560;2022-08-11T13:43:52;28.30;41.10
43697;DHT22;29301;47.620;19.560;2022-08-11T13:46:19;28.00;41.20
43697;DHT22;29301;47.620;19.560;2022-08-11T13:48:48;27.90;41.10
43697;DHT22;29301;47.620;19.560;2022-08-11T13:51:14;27.70;41.40
43697;DHT22;29301;47.620;19.560;2022-08-11T13:54:08;27.50;41.50
43697;DHT22;29301;47.620;19.560;2022-08-11T13:56:36;27.40;41.90
43697;DHT22;29301;47.620;19.560;2022-08-11T13:59:06;27.50;42.10
43697;DHT22;29301;47.620;19.560;2022-08-11T14:01:36;27.60;42.10
43697;DHT22;29301;47.620;19.560;2022-08-11T14:04:19;27.50;41.80
43697;DHT22;29301;47.620;19.560;2022-08-11T14:06:51;27.60;42.20
43697;DHT22;29301;47.620;19.560;2022-08-11T14:09:25;27.70;42.60
43697;DHT22;29301;47.620;19.560;2022-08-11T14:11:57;27.70;42.60
43697;DHT22;29301;47.620;19.560;2022-08-11T14:14:43;27.60;42.00
43697;DHT22;29301;47.620;19.560;2022-08-11T14:17:12;27.70;41.90
43697;DHT22;29301;47.620;19.560;2022-08-11T14:19:41;27.80;41.80
43697;DHT22;29301;47.620;19.560;2022-08-11T14:22:11;27.80;41.40
43697;DHT22;29301;47.620;19.560;2022-08-11T14:24:40;27.70;41.30
43697;DHT22;29301;47.620;19.560;2022-08-11T14:27:08;27.70;41.50
43697;DHT22;29301;47.620;19.560;2022-08-11T14:29:34;27.70;41.60
43697;DHT22;29301;47.620;19.560;2022-08-11T14:32:05;27.70;42.00
43697;DHT22;29301;47.620;19.560;2022-08-11T14:34:33;27.50;42.60
43697;DHT22;29301;47.620;19.560;2022-08-11T14:37:14;27.10;43.20
43697;DHT22;29301;47.620;19.560;2022-08-11T14:40:01;26.80;43.60
43697;DHT22;29301;47.620;19.560;2022-08-11T14:42:47;26.70;43.70
43697;DHT22;29301;47.620;19.560;2022-08-11T14:45:31;26.60;43.20
43697;DHT22;29301;47.620;19.560;2022-08-11T14:48:16;26.50;41.70
43697;DHT22;29301;47.620;19.560;2022-08-11T14:50:42;26.50;41.20
43697;DHT22;29301;47.620;19.560;2022-08-11T14:53:11;26.60;40.90
43697;DHT22;29301;47.620;19.560;2022-08-11T14:55:41;26.70;40.90
43697;DHT22;29301;47.620;19.560;2022-08-11T14:58:28;26.70;40.90
43697;DHT22;29301;47.620;19.560;2022-08-11T15:00:59;26.80;41.40
43697;DHT22;29301;47.620;19.560;2022-08-11T15:03:27;26.80;41.80
43697;DHT22;29301;47.620;19.560;2022-08-11T15:05:55;26.90;41.90
43697;DHT22;29301;47.620;19.560;2022-08-11T15:08:22;26.90;41.90
43697;DHT22;29301;47.620;19.560;2022-08-11T15:11:09;26.90;42.00
43697;DHT22;29301;47.620;19.560;2022-08-11T15:13:55;26.90;42.10
43697;DHT22;29301;47.620;19.560;2022-08-11T15:16:25;26.90;42.30
43697;DHT22;29301;47.620;19.560;2022-08-11T15:19:11;26.90;42.40
43697;DHT22;29301;47.620;19.560;2022-08-11T15:21:37;26.90;42.40
43697;DHT22;29301;47.620;19.560;2022-08-11T15:24:22;27.00;42.40
43697;DHT22;29301;47.620;19.560;2022-08-11T15:26:49;26.90;42.40
43697;DHT22;29301;47.620;19.560;2022-08-11T15:29:35;27.00;42.50
43697;DHT22;29301;47.620;19.560;2022-08-11T15:32:21;27.00;42.50
43697;DHT22;29301;47.620;19.560;2022-08-11T15:34:59;27.00;42.60
43697;DHT22;29301;47.620;19.560;2022-08-11T15:37:46;27.00;42.80
43697;DHT22;29301;47.620;19.560;2022-08-11T15:40:27;27.10;43.10
43697;DHT22;29301;47.620;19.560;2022-08-11T15:43:25;27.00;43.20
43697;DHT22;29301;47.620;19.560;2022-08-11T15:46:20;27.00;43.30
43697;DHT22;29301;47.620;19.560;2022-08-11T15:48:58;27.00;43.60
43697;DHT22;29301;47.620;19.560;2022-08-11T15:51:36;27.10;43.60
43697;DHT22;29301;47.620;19.560;2022-08-11T15:54:08;27.00;43.80
43697;DHT22;29301;47.620;19.560;2022-08-11T15:56:43;27.00;43.90
43697;DHT22;29301;47.620;19.560;2022-08-11T15:59:13;27.00;44.20
43697;DHT22;29301;47.620;19.560;2022-08-11T16:01:59;26.90;44.40
43697;DHT22;29301;47.620;19.560;2022-08-11T16:04:46;27.00;44.50
43697;DHT22;29301;47.620;19.560;2022-08-11T16:07:25;27.00;44.40
43697;DHT22;29301;47.620;19.560;2022-08-11T16:10:10;26.90;44.10
43697;DHT22;29301;47.620;19.560;2022-08-11T16:12:38;26.90;44.20
43697;DHT22;29301;47.620;19.560;2022-08-11T16:15:08;26.90;44.20
43697;DHT22;29301;47.620;19.560;2022-08-11T16:17:56;26.90;44.20
43697;DHT22;29301;47.620;19.560;2022-08-11T16:20:25;26.80;44.10
43697;DHT22;29301;47.620;19.560;2022-08-11T16:22:55;26.70;44.10
43697;DHT22;29301;47.620;19.560;2022-08-11T16:25:23;26.70;44.20
43697;DHT22;29301;47.620;19.560;2022-08-11T16:27:53;26.60;44.20
43697;DHT22;29301;47.620;19.560;2022-08-11T16:30:20;26.60;44.20
43697;DHT22;29301;47.620;19.560;2022-08-11T16:32:48;26.50;44.10
43697;DHT22;29301;47.620;19.560;2022-08-11T16:35:21;26.40;43.80
43697;DHT22;29301;47.620;19.560;2022-08-11T16:38:07;26.40;43.60
43697;DHT22;29301;47.620;19.560;2022-08-11T16:40:53;26.30;43.40
43697;DHT22;29301;47.620;19.560;2022-08-11T16:43:23;26.20;43.60
43697;DHT22;29301;47.620;19.560;2022-08-11T16:46:08;26.10;44.50
43697;DHT22;29301;47.620;19.560;2022-08-11T16:48:54;25.90;45.40
43697;DHT22;29301;47.620;19.560;2022-08-11T16:51:21;25.80;45.90
43697;DHT22;29301;47.620;19.560;2022-08-11T16:53:48;25.60;46.00
43697;DHT22;29301;47.620;19.560;2022-08-11T16:56:19;25.50;46.30
43697;DHT22;29301;47.620;19.560;2022-08-11T16:58:51;25.40;46.30
43697;DHT22;29301;47.620;19.560;2022-08-11T17:01:37;25.30;46.50
43697;DHT22;29301;47.620;19.560;2022-08-11T17:04:18;25.30;46.90
43697;DHT22;29301;47.620;19.560;2022-08-11T17:07:04;25.20;46.90
43697;DHT22;29301;47.620;19.560;2022-08-11T17:10:02;25.10;47.80
43697;DHT22;29301;47.620;19.560;2022-08-11T17:12:49;25.00;48.70
43697;DHT22;29301;47.620;19.560;2022-08-11T17:15:50;24.90;49.10
43697;DHT22;29301;47.620;19.560;2022-08-11T17:18:43;24.80;49.20
43697;DHT22;29301;47.620;19.560;2022-08-11T17:23:48;24.60;49.50
43697;DHT22;29301;47.620;19.560;2022-08-11T17:28:55;24.50;49.70
43697;DHT22;29301;47.620;19.560;2022-08-11T17:31:22;24.50;49.90
43697;DHT22;29301;47.620;19.560;2022-08-11T17:34:08;24.50;50.00
43697;DHT22;29301;47.620;19.560;2022-08-11T17:36:53;24.30;50.00
43697;DHT22;29301;47.620;19.560;2022-08-11T17:39:23;24.20;50.00
43697;DHT22;29301;47.620;19.560;2022-08-11T17:41:52;24.30;50.10
43697;DHT22;29301;47.620;19.560;2022-08-11T17:44:38;24.30;50.10
43697;DHT22;29301;47.620;19.560;2022-08-11T17:47:23;24.20;50.10
43697;DHT22;29301;47.620;19.560;2022-08-11T17:50:08;24.00;50.20
43697;DHT22;29301;47.620;19.560;2022-08-11T17:52:36;24.00;50.40
43697;DHT22;29301;47.620;19.560;2022-08-11T17:55:22;24.00;50.50
43697;DHT22;29301;47.620;19.560;2022-08-11T17:58:07;24.00;50.70
43697;DHT22;29301;47.620;19.560;2022-08-11T18:00:52;24.00;50.70
43697;DHT22;29301;47.620;19.560;2022-08-11T18:03:20;24.00;50.70
43697;DHT22;29301;47.620;19.560;2022-08-11T18:06:02;24.00;50.80
43697;DHT22;29301;47.620;19.560;2022-08-11T18:08:30;24.00;50.80
43697;DHT22;29301;47.620;19.560;2022-08-11T18:11:16;23.90;52.40
43697;DHT22;29301;47.620;19.560;2022-08-11T18:14:06;23.80;54.60
43697;DHT22;29301;47.620;19.560;2022-08-11T18:16:52;23.70;53.70
43697;DHT22;29301;47.620;19.560;2022-08-11T18:19:36;23.60;54.70
43697;DHT22;29301;47.620;19.560;2022-08-11T18:22:27;23.50;55.40
43697;DHT22;29301;47.620;19.560;2022-08-11T18:25:15;23.50;55.30
43697;DHT22;29301;47.620;19.560;2022-08-11T18:28:04;23.40;56.30
43697;DHT22;29301;47.620;19.560;2022-08-11T18:30:49;23.40;55.70
43697;DHT22;29301;47.620;19.560;2022-08-11T18:33:43;23.40;56.40
43697;DHT22;29301;47.620;19.560;2022-08-11T18:36:33;23.30;56.20
43697;DHT22;29301;47.620;19.560;2022-08-11T18:39:19;23.30;56.30
43697;DHT22;29301;47.620;19.560;2022-08-11T18:42:14;23.20;56.60
43697;DHT22;29301;47.620;19.560;2022-08-11T18:45:02;23.10;56.60
43697;DHT22;29301;47.620;19.560;2022-08-11T18:47:49;23.10;57.10
43697;DHT22;29301;47.620;19.560;2022-08-11T18:50:35;23.10;57.40
43697;DHT22;29301;47.620;19.560;2022-08-11T18:53:21;23.00;57.20
43697;DHT22;29301;47.620;19.560;2022-08-11T18:56:09;22.90;58.00
43697;DHT22;29301;47.620;19.560;2022-08-11T18:58:54;22.70;58.30
43697;DHT22;29301;47.620;19.560;2022-08-11T19:01:39;22.70;58.70
43697;DHT22;29301;47.620;19.560;2022-08-11T19:04:25;22.70;59.30
43697;DHT22;29301;47.620;19.560;2022-08-11T19:07:11;22.80;59.00
43697;DHT22;29301;47.620;19.560;2022-08-11T19:09:57;22.80;59.30
43697;DHT22;29301;47.620;19.560;2022-08-11T19:12:44;22.80;59.20
43697;DHT22;29301;47.620;19.560;2022-08-11T19:15:30;22.80;59.30
43697;DHT22;29301;47.620;19.560;2022-08-11T19:18:20;22.70;59.60
43697;DHT22;29301;47.620;19.560;2022-08-11T19:21:06;22.70;59.50
43697;DHT22;29301;47.620;19.560;2022-08-11T19:23:53;22.70;58.90
43697;DHT22;29301;47.620;19.560;2022-08-11T19:26:39;22.90;58.80
43697;DHT22;29301;47.620;19.560;2022-08-11T19:29:25;22.90;58.70
43697;DHT22;29301;47.620;19.560;2022-08-11T19:32:11;22.90;58.30
43697;DHT22;29301;47.620;19.560;2022-08-11T19:34:57;22.70;58.10
43697;DHT22;29301;47.620;19.560;2022-08-11T19:37:43;22.70;58.10
43697;DHT22;29301;47.620;19.560;2022-08-11T19:40:28;22.70;58.20
43697;DHT22;29301;47.620;19.560;2022-08-11T19:43:15;22.60;58.40
43697;DHT22;29301;47.620;19.560;2022-08-11T19:46:01;22.60;58.60
43697;DHT22;29301;47.620;19.560;2022-08-11T19:48:51;22.30;59.00
43697;DHT22;29301;47.620;19.560;2022-08-11T19:51:37;21.90;60.10
43697;DHT22;29301;47.620;19.560;2022-08-11T19:54:32;21.60;60.80